sensor_id;sensor_type;location;lat;lon;timestamp;pressure;altitude;pressure_sealevel;temperature;humidity
33422;BME280;19763;55.798;37.782;2023-04-19T00:01:25;149895.13;;;10.35;40.51
33422;BME280;19763;55.798;37.782;2023-04-19T00:03:51;149928.47;;;10.48;40.42
33422;BME280;19763;55.798;37.782;2023-04-19T00:06:16;149928.47;;;10.48;40.51
33422;BME280;19763;55.798;37.782;2023-04-19T00:08:42;149925.88;;;10.47;40.03
33422;BME280;19763;55.798;37.782;2023-04-19T00:11:09;149925.88;;;10.47;40.44
33422;BME280;19763;55.798;37.782;2023-04-19T00:13:35;149919.50;;;10.45;39.73
33422;BME280;19763;55.798;37.782;2023-04-19T00:16:01;149900.25;;;10.37;40.41
33422;BME280;19763;55.798;37.782;2023-04-19T00:18:26;149900.25;;;10.37;39.99
33422;BME280;19763;55.798;37.782;2023-04-19T00:20:52;149887.41;;;10.32;39.65
33422;BME280;19763;55.798;37.782;2023-04-19T00:23:17;149902.81;;;10.38;39.92
33422;BME280;19763;55.798;37.782;2023-04-19T00:25:47;149882.25;;;10.30;40.46
33422;BME280;19763;55.798;37.782;2023-04-19T00:28:13;149878.41;;;10.28;40.10
33422;BME280;19763;55.798;37.782;2023-04-19T00:30:39;149918.19;;;10.44;40.02
33422;BME280;19763;55.798;37.782;2023-04-19T00:33:05;149924.63;;;10.47;40.12
33422;BME280;19763;55.798;37.782;2023-04-19T00:35:38;149897.66;;;10.36;39.97
33422;BME280;19763;55.798;37.782;2023-04-19T00:38:04;149902.81;;;10.38;39.65
33422;BME280;19763;55.798;37.782;2023-04-19T00:40:31;149902.81;;;10.38;40.00
33422;BME280;19763;55.798;37.782;2023-04-19T00:42:56;149902.81;;;10.38;40.41
33422;BME280;19763;55.798;37.782;2023-04-19T00:45:22;149895.13;;;10.35;39.80
33422;BME280;19763;55.798;37.782;2023-04-19T00:47:48;149861.72;;;10.22;40.67
33422;BME280;19763;55.798;37.782;2023-04-19T00:50:14;149848.94;;;10.16;40.16
33422;BME280;19763;55.798;37.782;2023-04-19T00:52:39;149854.03;;;10.18;40.19
33422;BME280;19763;55.798;37.782;2023-04-19T00:55:06;149834.84;;;10.11;39.94
33422;BME280;19763;55.798;37.782;2023-04-19T00:57:32;149866.88;;;10.24;40.78
33422;BME280;19763;55.798;37.782;2023-04-19T00:59:58;149807.88;;;10.00;41.04
33422;BME280;19763;55.798;37.782;2023-04-19T01:02:24;149784.84;;;9.91;40.85
33422;BME280;19763;55.798;37.782;2023-04-19T01:04:50;149801.47;;;9.97;40.74
33422;BME280;19763;55.798;37.782;2023-04-19T01:07:16;149806.63;;;9.99;40.80
33422;BME280;19763;55.798;37.782;2023-04-19T01:09:44;149837.41;;;10.12;41.05
33422;BME280;19763;55.798;37.782;2023-04-19T01:12:09;149845.09;;;10.15;40.81
33422;BME280;19763;55.798;37.782;2023-04-19T01:14:35;149781.00;;;9.89;41.03
33422;BME280;19763;55.798;37.782;2023-04-19T01:17:00;149813.03;;;10.02;41.32
33422;BME280;19763;55.798;37.782;2023-04-19T01:19:26;149810.47;;;10.01;40.84
33422;BME280;19763;55.798;37.782;2023-04-19T01:21:51;149789.94;;;9.93;41.70
33422;BME280;19763;55.798;37.782;2023-04-19T01:24:17;149823.31;;;10.06;41.32
33422;BME280;19763;55.798;37.782;2023-04-19T01:26:43;149816.88;;;10.04;41.47
33422;BME280;19763;55.798;37.782;2023-04-19T01:29:08;149807.88;;;10.00;41.58
33422;BME280;19763;55.798;37.782;2023-04-19T01:31:34;149784.84;;;9.91;41.77
33422;BME280;19763;55.798;37.782;2023-04-19T01:33:59;149791.25;;;9.93;42.03
33422;BME280;19763;55.798;37.782;2023-04-19T01:36:25;149809.22;;;10.00;41.42
33422;BME280;19763;55.798;37.782;2023-04-19T01:38:52;149795.09;;;9.95;41.25
33422;BME280;19763;55.798;37.782;2023-04-19T01:41:17;149802.78;;;9.98;42.04
33422;BME280;19763;55.798;37.782;2023-04-19T01:43:44;149825.84;;;10.07;41.00
33422;BME280;19763;55.798;37.782;2023-04-19T01:46:10;149788.69;;;9.92;41.45
33422;BME280;19763;55.798;37.782;2023-04-19T01:48:35;149798.94;;;9.96;41.91
33422;BME280;19763;55.798;37.782;2023-04-19T01:51:01;149815.56;;;10.03;42.18
33422;BME280;19763;55.798;37.782;2023-04-19T01:53:26;149788.69;;;9.92;41.50
33422;BME280;19763;55.798;37.782;2023-04-19T01:55:52;149804.06;;;9.98;41.58
33422;BME280;19763;55.798;37.782;2023-04-19T01:58:18;149800.22;;;9.97;42.62
33422;BME280;19763;55.798;37.782;2023-04-19T02:00:43;149831.00;;;10.09;42.26
33422;BME280;19763;55.798;37.782;2023-04-19T02:03:09;149850.19;;;10.17;42.52
33422;BME280;19763;55.798;37.782;2023-04-19T02:05:34;149852.78;;;10.18;42.15
33422;BME280;19763;55.798;37.782;2023-04-19T02:08:00;149832.25;;;10.10;41.96
33422;BME280;19763;55.798;37.782;2023-04-19T02:10:26;149864.31;;;10.23;42.26
33422;BME280;19763;55.798;37.782;2023-04-19T02:12:51;149811.72;;;10.01;42.35
33422;BME280;19763;55.798;37.782;2023-04-19T02:15:17;149846.34;;;10.15;41.94
33422;BME280;19763;55.798;37.782;2023-04-19T02:17:43;149833.53;;;10.10;42.20
33422;BME280;19763;55.798;37.782;2023-04-19T02:20:11;149860.47;;;10.21;41.41
33422;BME280;19763;55.798;37.782;2023-04-19T02:22:36;149882.25;;;10.30;41.60
33422;BME280;19763;55.798;37.782;2023-04-19T02:25:02;149856.63;;;10.19;41.62
33422;BME280;19763;55.798;37.782;2023-04-19T02:27:30;149906.66;;;10.40;41.82
33422;BME280;19763;55.798;37.782;2023-04-19T02:29:55;149927.19;;;10.48;42.29
33422;BME280;19763;55.798;37.782;2023-04-19T02:32:21;149923.34;;;10.46;41.31
33422;BME280;19763;55.798;37.782;2023-04-19T02:34:47;149945.16;;;10.55;42.40
33422;BME280;19763;55.798;37.782;2023-04-19T02:37:12;149906.66;;;10.40;42.24
33422;BME280;19763;55.798;37.782;2023-04-19T02:39:38;149940.00;;;10.53;41.46
33422;BME280;19763;55.798;37.782;2023-04-19T02:42:06;149910.50;;;10.41;41.82
33422;BME280;19763;55.798;37.782;2023-04-19T02:44:31;149892.56;;;10.34;42.22
33422;BME280;19763;55.798;37.782;2023-04-19T02:46:57;149888.66;;;10.32;42.43
33422;BME280;19763;55.798;37.782;2023-04-19T02:49:22;149897.66;;;10.36;41.69
33422;BME280;19763;55.798;37.782;2023-04-19T02:51:49;149870.72;;;10.25;41.99
33422;BME280;19763;55.798;37.782;2023-04-19T02:54:16;149879.66;;;10.29;42.57
33422;BME280;19763;55.798;37.782;2023-04-19T02:56:42;149846.34;;;10.15;43.23
33422;BME280;19763;55.798;37.782;2023-04-19T02:59:07;149847.63;;;10.16;42.36
33422;BME280;19763;55.798;37.782;2023-04-19T03:01:33;149841.25;;;10.13;42.63
33422;BME280;19763;55.798;37.782;2023-04-19T03:03:58;149756.63;;;9.79;43.35
33422;BME280;19763;55.798;37.782;2023-04-19T03:06:24;149788.69;;;9.92;43.12
33422;BME280;19763;55.798;37.782;2023-04-19T03:08:50;149787.38;;;9.92;42.81
33422;BME280;19763;55.798;37.782;2023-04-19T03:11:17;149763.06;;;9.82;42.43
33422;BME280;19763;55.798;37.782;2023-04-19T03:13:43;149760.50;;;9.81;42.40
33422;BME280;19763;55.798;37.782;2023-04-19T03:16:09;149752.81;;;9.78;42.56
33422;BME280;19763;55.798;37.782;2023-04-19T03:18:35;149750.22;;;9.77;42.49
33422;BME280;19763;55.798;37.782;2023-04-19T03:21:01;149792.53;;;9.94;41.69
33422;BME280;19763;55.798;37.782;2023-04-19T03:23:27;149791.25;;;9.93;42.01
33422;BME280;19763;55.798;37.782;2023-04-19T03:25:52;149792.53;;;9.94;42.54
33422;BME280;19763;55.798;37.782;2023-04-19T03:28:18;149759.16;;;9.80;42.30
33422;BME280;19763;55.798;37.782;2023-04-19T03:30:44;149738.69;;;9.72;42.60
33422;BME280;19763;55.798;37.782;2023-04-19T03:33:10;149714.34;;;9.62;42.06
33422;BME280;19763;55.798;37.782;2023-04-19T03:35:36;149759.16;;;9.80;42.07
33422;BME280;19763;55.798;37.782;2023-04-19T03:38:02;149805.31;;;9.99;42.15
33422;BME280;19763;55.798;37.782;2023-04-19T03:40:31;149746.38;;;9.75;42.42
33422;BME280;19763;55.798;37.782;2023-04-19T03:42:57;149800.22;;;9.97;42.12
33422;BME280;19763;55.798;37.782;2023-04-19T03:45:23;149781.00;;;9.89;42.13
33422;BME280;19763;55.798;37.782;2023-04-19T03:47:48;149784.84;;;9.91;41.03
33422;BME280;19763;55.798;37.782;2023-04-19T03:50:14;149769.44;;;9.84;41.71
33422;BME280;19763;55.798;37.782;2023-04-19T03:52:39;149768.16;;;9.84;42.11
33422;BME280;19763;55.798;37.782;2023-04-19T03:55:05;149766.91;;;9.83;41.51
33422;BME280;19763;55.798;37.782;2023-04-19T03:57:31;149787.38;;;9.92;41.46
33422;BME280;19763;55.798;37.782;2023-04-19T03:59:56;149807.88;;;10.00;41.91
33422;BME280;19763;55.798;37.782;2023-04-19T04:02:22;149792.53;;;9.94;41.08
33422;BME280;19763;55.798;37.782;2023-04-19T04:04:53;149757.91;;;9.80;41.93
33422;BME280;19763;55.798;37.782;2023-04-19T04:07:19;149725.88;;;9.67;42.17
33422;BME280;19763;55.798;37.782;2023-04-19T04:09:46;149729.72;;;9.68;42.78
33422;BME280;19763;55.798;37.782;2023-04-19T04:12:12;149806.63;;;9.99;42.77
33422;BME280;19763;55.798;37.782;2023-04-19T04:14:38;149804.06;;;9.98;41.30
33422;BME280;19763;55.798;37.782;2023-04-19T04:17:03;149846.34;;;10.15;42.08
33422;BME280;19763;55.798;37.782;2023-04-19T04:19:29;149822.00;;;10.06;42.14
33422;BME280;19763;55.798;37.782;2023-04-19T04:21:54;149870.72;;;10.25;41.62
33422;BME280;19763;55.798;37.782;2023-04-19T04:24:20;149851.47;;;10.17;41.53
33422;BME280;19763;55.798;37.782;2023-04-19T04:26:46;149854.03;;;10.18;40.98
33422;BME280;19763;55.798;37.782;2023-04-19T04:29:14;149882.25;;;10.30;40.93
33422;BME280;19763;55.798;37.782;2023-04-19T04:31:40;149902.81;;;10.38;40.99
33422;BME280;19763;55.798;37.782;2023-04-19T04:34:06;149937.47;;;10.52;41.17
33422;BME280;19763;55.798;37.782;2023-04-19T04:36:34;149986.16;;;10.71;40.27
33422;BME280;19763;55.798;37.782;2023-04-19T04:39:01;149987.47;;;10.72;40.51
33422;BME280;19763;55.798;37.782;2023-04-19T04:41:27;149936.16;;;10.51;41.07
33422;BME280;19763;55.798;37.782;2023-04-19T04:43:58;150013.13;;;10.82;40.82
33422;BME280;19763;55.798;37.782;2023-04-19T04:46:25;149981.06;;;10.69;40.39
33422;BME280;19763;55.798;37.782;2023-04-19T04:48:51;149891.25;;;10.33;41.20
33422;BME280;19763;55.798;37.782;2023-04-19T04:51:17;149981.06;;;10.69;40.56
33422;BME280;19763;55.798;37.782;2023-04-19T04:53:43;150010.53;;;10.81;40.58
33422;BME280;19763;55.798;37.782;2023-04-19T04:56:08;150022.13;;;10.86;40.26
33422;BME280;19763;55.798;37.782;2023-04-19T04:58:34;150059.28;;;11.01;40.10
33422;BME280;19763;55.798;37.782;2023-04-19T05:00:59;150046.44;;;10.96;39.86
33422;BME280;19763;55.798;37.782;2023-04-19T05:03:25;150008.00;;;10.80;40.58
33422;BME280;19763;55.798;37.782;2023-04-19T05:05:51;150055.44;;;10.99;40.14
33422;BME280;19763;55.798;37.782;2023-04-19T05:08:17;150104.22;;;11.19;40.08
33422;BME280;19763;55.798;37.782;2023-04-19T05:10:43;150110.59;;;11.21;39.54
33422;BME280;19763;55.798;37.782;2023-04-19T05:13:08;150131.13;;;11.30;40.03
33422;BME280;19763;55.798;37.782;2023-04-19T05:15:34;150163.22;;;11.43;40.00
33422;BME280;19763;55.798;37.782;2023-04-19T05:17:59;150173.47;;;11.47;39.96
33422;BME280;19763;55.798;37.782;2023-04-19T05:20:25;150223.53;;;11.67;39.85
33422;BME280;19763;55.798;37.782;2023-04-19T05:22:56;150272.31;;;11.86;40.38
33422;BME280;19763;55.798;37.782;2023-04-19T05:25:21;150247.94;;;11.77;39.93
33422;BME280;19763;55.798;37.782;2023-04-19T05:27:47;150304.47;;;11.99;39.65
33422;BME280;19763;55.798;37.782;2023-04-19T05:30:13;150336.56;;;12.12;39.67
33422;BME280;19763;55.798;37.782;2023-04-19T05:32:38;150307.03;;;12.00;39.29
33422;BME280;19763;55.798;37.782;2023-04-19T05:35:04;150426.44;;;12.48;39.19
33422;BME280;19763;55.798;37.782;2023-04-19T05:37:30;150427.75;;;12.49;39.52
33422;BME280;19763;55.798;37.782;2023-04-19T05:39:56;150461.13;;;12.62;39.27
33422;BME280;19763;55.798;37.782;2023-04-19T05:42:22;150517.66;;;12.85;39.08
33422;BME280;19763;55.798;37.782;2023-04-19T05:44:48;150623.03;;;13.27;39.23
33422;BME280;19763;55.798;37.782;2023-04-19T05:47:13;150562.63;;;13.03;37.86
33422;BME280;19763;55.798;37.782;2023-04-19T05:49:39;150633.31;;;13.31;37.91
33422;BME280;19763;55.798;37.782;2023-04-19T05:52:04;150696.31;;;13.56;37.63
33422;BME280;19763;55.798;37.782;2023-04-19T05:54:30;150651.34;;;13.38;37.39
33422;BME280;19763;55.798;37.782;2023-04-19T05:57:00;150805.59;;;14.00;36.16
33422;BME280;19763;55.798;37.782;2023-04-19T05:59:26;150941.88;;;14.55;35.15
33422;BME280;19763;55.798;37.782;2023-04-19T06:01:52;151015.28;;;14.84;34.83
33422;BME280;19763;55.798;37.782;2023-04-19T06:04:17;151005.00;;;14.80;35.18
33422;BME280;19763;55.798;37.782;2023-04-19T06:06:43;151079.63;;;15.10;34.83
33422;BME280;19763;55.798;37.782;2023-04-19T06:09:08;151035.88;;;14.92;34.48
33422;BME280;19763;55.798;37.782;2023-04-19T06:11:34;150971.56;;;14.66;34.42
33422;BME280;19763;55.798;37.782;2023-04-19T06:14:00;150799.16;;;13.97;34.58
33422;BME280;19763;55.798;37.782;2023-04-19T06:16:25;150909.72;;;14.42;33.31
33422;BME280;19763;55.798;37.782;2023-04-19T06:18:51;150871.16;;;14.26;33.50
33422;BME280;19763;55.798;37.782;2023-04-19T06:21:16;151062.88;;;15.03;33.70
33422;BME280;19763;55.798;37.782;2023-04-19T06:23:42;150944.47;;;14.56;33.39
33422;BME280;19763;55.798;37.782;2023-04-19T06:26:07;150848.03;;;14.17;33.35
33422;BME280;19763;55.798;37.782;2023-04-19T06:28:33;150863.44;;;14.23;33.60
33422;BME280;19763;55.798;37.782;2023-04-19T06:30:58;151005.00;;;14.80;32.40
33422;BME280;19763;55.798;37.782;2023-04-19T06:33:24;150988.25;;;14.73;32.27
33422;BME280;19763;55.798;37.782;2023-04-19T06:35:50;151068.03;;;15.05;31.78
33422;BME280;19763;55.798;37.782;2023-04-19T06:38:15;151200.59;;;15.58;31.57
33422;BME280;19763;55.798;37.782;2023-04-19T06:40:41;151239.22;;;15.74;31.20
33422;BME280;19763;55.798;37.782;2023-04-19T06:43:06;151122.09;;;15.27;30.96
33422;BME280;19763;55.798;37.782;2023-04-19T06:45:32;151077.03;;;15.09;30.84
33422;BME280;19763;55.798;37.782;2023-04-19T06:47:58;151088.59;;;15.13;31.21
33422;BME280;19763;55.798;37.782;2023-04-19T06:50:23;151059.00;;;15.01;31.01
33422;BME280;19763;55.798;37.782;2023-04-19T06:52:49;151133.66;;;15.31;30.56
33422;BME280;19763;55.798;37.782;2023-04-19T06:55:14;151210.91;;;15.62;30.59
33422;BME280;19763;55.798;37.782;2023-04-19T06:57:40;151239.22;;;15.74;30.63
33422;BME280;19763;55.798;37.782;2023-04-19T07:00:07;151105.34;;;15.20;30.71
33422;BME280;19763;55.798;37.782;2023-04-19T07:02:33;151244.34;;;15.76;30.31
33422;BME280;19763;55.798;37.782;2023-04-19T07:04:58;151324.25;;;16.08;29.46
33422;BME280;19763;55.798;37.782;2023-04-19T07:07:25;151424.69;;;16.48;29.36
33422;BME280;19763;55.798;37.782;2023-04-19T07:09:51;151431.16;;;16.50;29.40
33422;BME280;19763;55.798;37.782;2023-04-19T07:12:16;151743.03;;;17.75;29.04
33422;BME280;19763;55.798;37.782;2023-04-19T07:14:42;151646.34;;;17.36;27.88
33422;BME280;19763;55.798;37.782;2023-04-19T07:17:07;151570.34;;;17.06;28.27
33422;BME280;19763;55.798;37.782;2023-04-19T07:19:33;151687.56;;;17.53;28.21
33422;BME280;19763;55.798;37.782;2023-04-19T07:22:00;151487.78;;;16.73;27.86
33422;BME280;19763;55.798;37.782;2023-04-19T07:24:27;151679.84;;;17.50;26.99
33422;BME280;19763;55.798;37.782;2023-04-19T07:26:54;151576.75;;;17.08;27.42
33422;BME280;19763;55.798;37.782;2023-04-19T07:29:20;151673.41;;;17.47;28.17
33422;BME280;19763;55.798;37.782;2023-04-19T07:31:46;151517.44;;;16.85;28.63
33422;BME280;19763;55.798;37.782;2023-04-19T07:34:12;151419.53;;;16.46;28.26
33422;BME280;19763;55.798;37.782;2023-04-19T07:36:37;151378.34;;;16.29;28.37
33422;BME280;19763;55.798;37.782;2023-04-19T07:39:03;151543.25;;;16.95;28.35
33422;BME280;19763;55.798;37.782;2023-04-19T07:41:30;151441.41;;;16.54;28.85
33422;BME280;19763;55.798;37.782;2023-04-19T07:43:56;151558.69;;;17.01;29.06
33422;BME280;19763;55.798;37.782;2023-04-19T07:46:21;151668.25;;;17.45;29.26
33422;BME280;19763;55.798;37.782;2023-04-19T07:48:47;151473.63;;;16.67;29.07
33422;BME280;19763;55.798;37.782;2023-04-19T07:51:16;151445.31;;;16.56;29.43
33422;BME280;19763;55.798;37.782;2023-04-19T07:53:42;151496.81;;;16.77;28.99
33422;BME280;19763;55.798;37.782;2023-04-19T07:56:09;151476.19;;;16.68;29.25
33422;BME280;19763;55.798;37.782;2023-04-19T07:58:36;151366.69;;;16.25;29.46
33422;BME280;19763;55.798;37.782;2023-04-19T08:01:02;151411.78;;;16.43;29.39
33422;BME280;19763;55.798;37.782;2023-04-19T08:03:29;151216.03;;;15.64;29.72
33422;BME280;19763;55.798;37.782;2023-04-19T08:05:54;151207.03;;;15.61;29.90
33422;BME280;19763;55.798;37.782;2023-04-19T08:08:20;151237.91;;;15.73;29.63
33422;BME280;19763;55.798;37.782;2023-04-19T08:10:46;151306.22;;;16.00;29.67
33422;BME280;19763;55.798;37.782;2023-04-19T08:13:11;151339.69;;;16.14;28.73
33422;BME280;19763;55.798;37.782;2023-04-19T08:15:37;151240.50;;;15.74;29.44
33422;BME280;19763;55.798;37.782;2023-04-19T08:18:03;151335.84;;;16.12;29.04
33422;BME280;19763;55.798;37.782;2023-04-19T08:20:31;151344.81;;;16.16;29.26
33422;BME280;19763;55.798;37.782;2023-04-19T08:22:58;151512.28;;;16.83;28.82
33422;BME280;19763;55.798;37.782;2023-04-19T08:25:24;151592.22;;;17.15;28.89
33422;BME280;19763;55.798;37.782;2023-04-19T08:27:55;151447.84;;;16.57;28.46
33422;BME280;19763;55.798;37.782;2023-04-19T08:30:21;151383.47;;;16.31;28.82
33422;BME280;19763;55.798;37.782;2023-04-19T08:32:47;151319.06;;;16.05;28.93
33422;BME280;19763;55.798;37.782;2023-04-19T08:35:13;151395.03;;;16.36;28.34
33422;BME280;19763;55.798;37.782;2023-04-19T08:37:39;151266.28;;;15.84;28.59
33422;BME280;19763;55.798;37.782;2023-04-19T08:40:05;151315.22;;;16.04;28.42
33422;BME280;19763;55.798;37.782;2023-04-19T08:42:31;151471.06;;;16.66;28.20
33422;BME280;19763;55.798;37.782;2023-04-19T08:45:00;151480.06;;;16.70;28.34
33422;BME280;19763;55.798;37.782;2023-04-19T08:47:34;151456.91;;;16.61;28.09
33422;BME280;19763;55.798;37.782;2023-04-19T08:50:01;151554.84;;;17.00;28.02
33422;BME280;19763;55.798;37.782;2023-04-19T08:52:29;151672.13;;;17.47;27.53
33422;BME280;19763;55.798;37.782;2023-04-19T08:54:55;151504.53;;;16.80;27.74
33422;BME280;19763;55.798;37.782;2023-04-19T08:57:21;151440.13;;;16.54;28.72
33422;BME280;19763;55.798;37.782;2023-04-19T08:59:47;151581.91;;;17.11;28.65
33422;BME280;19763;55.798;37.782;2023-04-19T09:02:16;151562.56;;;17.03;28.58
33422;BME280;19763;55.798;37.782;2023-04-19T09:04:42;151468.47;;;16.65;28.05
33422;BME280;19763;55.798;37.782;2023-04-19T09:07:07;151444.00;;;16.55;27.97
33422;BME280;19763;55.798;37.782;2023-04-19T09:09:33;151442.72;;;16.55;28.52
33422;BME280;19763;55.798;37.782;2023-04-19T09:12:01;151414.38;;;16.44;28.31
33422;BME280;19763;55.798;37.782;2023-04-19T09:14:27;151368.03;;;16.25;28.92
33422;BME280;19763;55.798;37.782;2023-04-19T09:16:53;151389.91;;;16.34;29.07
33422;BME280;19763;55.798;37.782;2023-04-19T09:19:44;151362.84;;;16.23;29.15
33422;BME280;19763;55.798;37.782;2023-04-19T09:22:13;151352.59;;;16.19;29.41
33422;BME280;19763;55.798;37.782;2023-04-19T09:24:39;151428.56;;;16.49;29.29
33422;BME280;19763;55.798;37.782;2023-04-19T09:27:04;151543.25;;;16.95;28.91
33422;BME280;19763;55.798;37.782;2023-04-19T09:29:30;151517.44;;;16.85;29.14
33422;BME280;19763;55.798;37.782;2023-04-19T09:31:57;151409.22;;;16.42;29.10
33422;BME280;19763;55.798;37.782;2023-04-19T09:34:23;151570.34;;;17.06;29.16
33422;BME280;19763;55.798;37.782;2023-04-19T09:36:49;151480.06;;;16.70;29.42
33422;BME280;19763;55.798;37.782;2023-04-19T09:39:30;151334.50;;;16.12;29.40
33422;BME280;19763;55.798;37.782;2023-04-19T09:41:56;151358.97;;;16.21;29.92
33422;BME280;19763;55.798;37.782;2023-04-19T09:44:23;151347.41;;;16.17;30.14
33422;BME280;19763;55.798;37.782;2023-04-19T09:46:49;151276.59;;;15.88;30.62
33422;BME280;19763;55.798;37.782;2023-04-19T09:49:21;151454.31;;;16.60;29.93
33422;BME280;19763;55.798;37.782;2023-04-19T09:51:52;151478.78;;;16.69;29.51
33422;BME280;19763;55.798;37.782;2023-04-19T09:54:19;151520.00;;;16.86;29.24
33422;BME280;19763;55.798;37.782;2023-04-19T09:56:46;151562.56;;;17.03;29.03
33422;BME280;19763;55.798;37.782;2023-04-19T09:59:12;151574.19;;;17.07;29.69
33422;BME280;19763;55.798;37.782;2023-04-19T10:04:13;151468.47;;;16.65;29.77
33422;BME280;19763;55.798;37.782;2023-04-19T10:06:49;151428.56;;;16.49;29.53
33422;BME280;19763;55.798;37.782;2023-04-19T10:09:17;151442.72;;;16.55;30.30
33422;BME280;19763;55.798;37.782;2023-04-19T10:11:50;151406.66;;;16.41;30.02
33422;BME280;19763;55.798;37.782;2023-04-19T10:14:23;151356.44;;;16.20;30.00
33422;BME280;19763;55.798;37.782;2023-04-19T10:16:50;151402.81;;;16.39;29.70
33422;BME280;19763;55.798;37.782;2023-04-19T10:19:18;151474.94;;;16.68;29.16
33422;BME280;19763;55.798;37.782;2023-04-19T10:21:46;151511.00;;;16.82;28.90
33422;BME280;19763;55.798;37.782;2023-04-19T10:24:13;151541.97;;;16.95;29.42
33422;BME280;19763;55.798;37.782;2023-04-19T10:29:57;151648.94;;;17.37;29.05
33422;BME280;19763;55.798;37.782;2023-04-19T10:32:40;151667.00;;;17.45;28.20
33422;BME280;19763;55.798;37.782;2023-04-19T10:35:09;151628.31;;;17.29;27.89
33422;BME280;19763;55.798;37.782;2023-04-19T10:37:39;151657.94;;;17.41;29.24
33422;BME280;19763;55.798;37.782;2023-04-19T10:40:05;151603.81;;;17.19;28.28
33422;BME280;19763;55.798;37.782;2023-04-19T10:45:35;151619.28;;;17.25;28.21
33422;BME280;19763;55.798;37.782;2023-04-19T10:48:02;151705.66;;;17.60;28.76
33422;BME280;19763;55.798;37.782;2023-04-19T10:50:29;151737.91;;;17.73;28.45
33422;BME280;19763;55.798;37.782;2023-04-19T10:52:54;151754.63;;;17.80;27.69
33422;BME280;19763;55.798;37.782;2023-04-19T10:55:20;151732.72;;;17.71;27.60
33422;BME280;19763;55.798;37.782;2023-04-19T10:58:05;151692.75;;;17.55;27.25
33422;BME280;19763;55.798;37.782;2023-04-19T11:00:31;151737.91;;;17.73;27.86
33422;BME280;19763;55.798;37.782;2023-04-19T11:06:21;151581.91;;;17.11;27.44
33422;BME280;19763;55.798;37.782;2023-04-19T11:08:51;151727.56;;;17.69;28.11
33422;BME280;19763;55.798;37.782;2023-04-19T11:11:18;151624.44;;;17.28;27.22
33422;BME280;19763;55.798;37.782;2023-04-19T11:13:47;151535.53;;;16.92;28.15
33422;BME280;19763;55.798;37.782;2023-04-19T11:16:12;151465.91;;;16.64;28.30
33422;BME280;19763;55.798;37.782;2023-04-19T11:18:38;151511.00;;;16.82;27.88
33422;BME280;19763;55.798;37.782;2023-04-19T11:21:04;151504.53;;;16.80;28.11
33422;BME280;19763;55.798;37.782;2023-04-19T11:23:30;151531.66;;;16.90;28.50
33422;BME280;19763;55.798;37.782;2023-04-19T11:25:55;151520.00;;;16.86;28.07
33422;BME280;19763;55.798;37.782;2023-04-19T11:28:21;151621.88;;;17.27;27.71
33422;BME280;19763;55.798;37.782;2023-04-19T11:30:47;151724.97;;;17.68;27.50
33422;BME280;19763;55.798;37.782;2023-04-19T11:33:13;151735.31;;;17.72;26.77
33422;BME280;19763;55.798;37.782;2023-04-19T11:35:39;151706.94;;;17.60;26.98
33422;BME280;19763;55.798;37.782;2023-04-19T11:38:05;151749.47;;;17.77;27.18
33422;BME280;19763;55.798;37.782;2023-04-19T11:40:31;151718.53;;;17.65;27.20
33422;BME280;19763;55.798;37.782;2023-04-19T11:42:59;151701.75;;;17.58;27.21
33422;BME280;19763;55.798;37.782;2023-04-19T11:45:31;151615.41;;;17.24;27.43
33422;BME280;19763;55.798;37.782;2023-04-19T11:47:57;151610.28;;;17.22;27.33
33422;BME280;19763;55.798;37.782;2023-04-19T11:50:40;151529.09;;;16.89;27.45
33422;BME280;19763;55.798;37.782;2023-04-19T11:53:22;151562.56;;;17.03;27.05
33422;BME280;19763;55.798;37.782;2023-04-19T11:55:56;151507.13;;;16.81;27.60
33422;BME280;19763;55.798;37.782;2023-04-19T11:58:29;151605.09;;;17.20;26.78
33422;BME280;19763;55.798;37.782;2023-04-19T12:01:06;151523.91;;;16.87;27.24
33422;BME280;19763;55.798;37.782;2023-04-19T12:03:33;151561.28;;;17.02;27.25
33422;BME280;19763;55.798;37.782;2023-04-19T12:06:00;151553.56;;;16.99;27.53
33422;BME280;19763;55.798;37.782;2023-04-19T12:08:38;151616.72;;;17.24;27.04
33422;BME280;19763;55.798;37.782;2023-04-19T12:11:05;151701.75;;;17.58;26.94
33422;BME280;19763;55.798;37.782;2023-04-19T12:13:31;151688.91;;;17.53;27.13
33422;BME280;19763;55.798;37.782;2023-04-19T12:15:58;151603.81;;;17.19;26.77
33422;BME280;19763;55.798;37.782;2023-04-19T12:18:24;151610.28;;;17.22;27.12
33422;BME280;19763;55.798;37.782;2023-04-19T12:20:51;151638.63;;;17.33;26.73
33422;BME280;19763;55.798;37.782;2023-04-19T12:23:19;151746.88;;;17.76;26.80
33422;BME280;19763;55.798;37.782;2023-04-19T12:25:46;151806.28;;;18.00;26.43
33422;BME280;19763;55.798;37.782;2023-04-19T12:28:13;151785.63;;;17.92;25.87
33422;BME280;19763;55.798;37.782;2023-04-19T12:30:39;151808.81;;;18.01;26.56
33422;BME280;19763;55.798;37.782;2023-04-19T12:33:06;151795.94;;;17.96;26.07
33422;BME280;19763;55.798;37.782;2023-04-19T12:35:32;151660.53;;;17.42;26.42
33422;BME280;19763;55.798;37.782;2023-04-19T12:37:59;151705.66;;;17.60;26.34
33422;BME280;19763;55.798;37.782;2023-04-19T12:40:26;151581.91;;;17.11;26.83
33422;BME280;19763;55.798;37.782;2023-04-19T12:42:52;151624.44;;;17.28;26.58
33422;BME280;19763;55.798;37.782;2023-04-19T12:45:19;151620.59;;;17.26;26.51
33422;BME280;19763;55.798;37.782;2023-04-19T12:47:46;151598.69;;;17.17;26.79
33422;BME280;19763;55.798;37.782;2023-04-19T12:50:12;151664.41;;;17.43;26.14